createdAt,value
2019-03-25T00:00:15.150Z,0.00
2019-03-25T00:01:15.130Z,0.00
2019-03-25T00:02:15.116Z,0.00
2019-03-25T00:03:15.130Z,0.00
2019-03-25T00:04:15.096Z,0.00
2019-03-25T00:05:15.085Z,0.00
2019-03-25T00:06:15.074Z,0.00
2019-03-25T00:07:15.063Z,0.00
2019-03-25T00:08:15.053Z,0.00
2019-03-25T00:09:15.038Z,0.00
2019-03-25T00:10:15.028Z,0.00
2019-03-25T00:11:15.022Z,0.00
2019-03-25T00:12:15.006Z,0.00
2019-03-25T00:13:14.993Z,0.00
2019-03-25T00:14:14.987Z,0.00
2019-03-25T00:15:14.973Z,0.00
2019-03-25T00:16:14.959Z,0.00
2019-03-25T00:17:14.949Z,0.00
2019-03-25T00:18:14.944Z,0.00
2019-03-25T00:19:14.940Z,0.00
2019-03-25T00:20:14.926Z,0.00
2019-03-25T00:21:14.903Z,0.00
2019-03-25T00:22:14.894Z,0.00
2019-03-25T00:23:14.880Z,0.00
2019-03-25T00:24:14.874Z,0.00
2019-03-25T00:25:14.858Z,0.00
2019-03-25T00:26:14.848Z,0.00
2019-03-25T00:27:14.844Z,0.00
2019-03-25T00:28:14.828Z,0.00
2019-03-25T00:29:14.819Z,0.00
2019-03-25T00:30:14.805Z,0.00
2019-03-25T00:31:14.798Z,0.00
2019-03-25T00:32:14.783Z,0.00
2019-03-25T00:33:14.777Z,0.00
2019-03-25T00:34:14.790Z,0.00
2019-03-25T00:35:14.749Z,0.00
2019-03-25T00:36:14.739Z,0.00
2019-03-25T00:37:14.733Z,0.00
2019-03-25T00:38:14.718Z,0.00
2019-03-25T00:39:14.707Z,0.00
2019-03-25T00:40:14.694Z,0.00
2019-03-25T00:41:14.683Z,0.00
2019-03-25T00:42:14.674Z,0.00
2019-03-25T00:43:14.670Z,0.00
2019-03-25T00:44:14.655Z,0.00
2019-03-25T00:45:14.642Z,0.00
2019-03-25T00:46:14.625Z,0.00
2019-03-25T00:47:14.614Z,0.00
2019-03-25T00:48:14.612Z,0.00
2019-03-25T00:49:14.592Z,0.00
2019-03-25T00:50:14.582Z,0.00
2019-03-25T00:51:14.579Z,0.00
2019-03-25T00:52:14.558Z,0.00
2019-03-25T00:53:14.554Z,0.00
2019-03-25T00:54:14.538Z,0.00
2019-03-25T00:55:14.527Z,0.00
2019-03-25T00:56:14.521Z,0.00
2019-03-25T00:57:14.512Z,0.00
2019-03-25T00:58:14.492Z,0.00
2019-03-25T00:59:14.483Z,0.00
2019-03-25T01:00:14.473Z,0.00
2019-03-25T01:01:14.464Z,0.00
2019-03-25T01:02:14.450Z,0.00
2019-03-25T01:03:14.439Z,0.00
2019-03-25T01:04:14.424Z,0.00
2019-03-25T01:05:14.421Z,0.00
2019-03-25T01:06:14.407Z,0.00
2019-03-25T01:07:14.392Z,0.00
2019-03-25T01:08:14.386Z,0.00
2019-03-25T01:09:14.369Z,0.00
2019-03-25T01:10:14.368Z,0.00
2019-03-25T01:11:14.361Z,0.00
2019-03-25T01:12:14.353Z,0.00
2019-03-25T01:13:14.332Z,0.00
2019-03-25T01:14:14.319Z,0.00
2019-03-25T01:15:14.303Z,0.00
2019-03-25T01:16:14.302Z,0.00
2019-03-25T01:17:14.302Z,0.00
2019-03-25T01:18:17.148Z,0.00
2019-03-25T01:19:14.261Z,0.00
2019-03-25T01:20:14.332Z,0.00
2019-03-25T01:21:14.241Z,0.00
2019-03-25T01:22:14.226Z,0.00
2019-03-25T01:23:14.222Z,0.00
2019-03-25T01:24:14.212Z,0.00
2019-03-25T01:25:14.203Z,0.00
2019-03-25T01:26:14.194Z,0.00
2019-03-25T01:27:14.177Z,0.00
2019-03-25T01:28:14.162Z,0.00
2019-03-25T01:29:14.155Z,0.00
2019-03-25T01:30:14.137Z,0.00
2019-03-25T01:31:14.129Z,0.00
2019-03-25T01:32:14.124Z,0.00
2019-03-25T01:33:14.109Z,0.00
2019-03-25T01:34:14.092Z,0.00
2019-03-25T01:35:14.080Z,0.00
2019-03-25T01:36:14.072Z,0.00
2019-03-25T01:37:14.065Z,0.00
2019-03-25T01:38:14.048Z,0.00
2019-03-25T01:39:14.037Z,0.00
2019-03-25T01:40:14.032Z,0.00
2019-03-25T01:41:14.044Z,0.00
2019-03-25T01:42:14.006Z,0.00
2019-03-25T01:43:14.029Z,0.00
2019-03-25T01:44:14.004Z,0.00
2019-03-25T01:45:13.974Z,0.00
2019-03-25T01:46:13.965Z,0.00
2019-03-25T01:47:13.960Z,0.00
2019-03-25T01:48:13.948Z,0.00
2019-03-25T01:49:13.936Z,0.00
2019-03-25T01:50:13.926Z,0.00
2019-03-25T01:51:13.908Z,0.00
2019-03-25T01:52:13.897Z,0.00
2019-03-25T01:53:13.887Z,0.00
2019-03-25T01:54:13.877Z,0.00
2019-03-25T01:55:13.939Z,0.00
2019-03-25T01:56:13.855Z,0.00
2019-03-25T01:57:13.847Z,0.00
2019-03-25T01:58:13.826Z,0.00
2019-03-25T01:59:13.822Z,0.00
2019-03-25T02:00:13.818Z,0.00
2019-03-25T02:01:13.804Z,0.00
2019-03-25T02:02:13.790Z,0.00
2019-03-25T02:03:13.774Z,0.00
2019-03-25T02:04:13.762Z,0.00
2019-03-25T02:05:13.756Z,0.00
2019-03-25T02:06:13.742Z,0.00
2019-03-25T02:07:13.729Z,0.00
2019-03-25T02:08:13.721Z,0.00
2019-03-25T02:09:13.708Z,0.00
2019-03-25T02:10:13.699Z,0.00
2019-03-25T02:11:13.686Z,0.00
2019-03-25T02:12:13.675Z,0.00
2019-03-25T02:13:13.665Z,0.00
2019-03-25T02:14:13.654Z,0.00
2019-03-25T02:15:13.662Z,0.00
2019-03-25T02:16:13.637Z,0.00
2019-03-25T02:17:13.624Z,0.00
2019-03-25T02:18:13.614Z,0.00
2019-03-25T02:19:13.621Z,0.00
2019-03-25T02:20:13.590Z,0.00
2019-03-25T02:21:13.583Z,0.00
2019-03-25T02:22:13.582Z,0.00
2019-03-25T02:23:13.677Z,0.00
2019-03-25T02:24:13.559Z,0.00
2019-03-25T02:25:24.599Z,0.00
2019-03-25T02:26:14.524Z,0.00
2019-03-25T02:27:13.514Z,0.00
2019-03-25T02:28:13.502Z,0.00
2019-03-25T02:29:13.500Z,0.00
2019-03-25T02:30:13.479Z,0.00
2019-03-25T02:31:13.512Z,0.00
2019-03-25T02:32:13.459Z,0.00
2019-03-25T02:33:13.453Z,0.00
2019-03-25T02:34:13.435Z,0.00
2019-03-25T02:35:13.433Z,0.00
2019-03-25T02:36:13.413Z,0.00
2019-03-25T02:37:13.403Z,0.00
2019-03-25T02:38:13.392Z,0.00
2019-03-25T02:39:13.379Z,0.00
2019-03-25T02:40:13.371Z,0.00
2019-03-25T02:41:13.361Z,0.00
2019-03-25T02:42:13.349Z,0.00
2019-03-25T02:43:13.336Z,0.00
2019-03-25T02:44:13.333Z,0.00
2019-03-25T02:45:13.315Z,0.00
2019-03-25T02:46:13.349Z,0.00
2019-03-25T02:47:13.306Z,0.00
2019-03-25T02:48:13.285Z,0.00
2019-03-25T02:49:13.279Z,0.00
2019-03-25T02:50:13.263Z,0.00
2019-03-25T02:51:13.284Z,0.00
2019-03-25T02:52:13.239Z,0.00
2019-03-25T02:53:13.240Z,0.00
2019-03-25T02:54:13.226Z,0.00
2019-03-25T02:55:13.216Z,0.00
2019-03-25T02:56:13.198Z,0.00
2019-03-25T02:57:13.187Z,0.00
2019-03-25T02:58:13.181Z,0.00
2019-03-25T02:59:13.168Z,0.00
2019-03-25T03:00:13.202Z,0.00
2019-03-25T03:01:13.186Z,0.00
2019-03-25T03:02:13.146Z,0.00
2019-03-25T03:03:13.117Z,0.00
2019-03-25T03:04:13.110Z,0.00
2019-03-25T03:05:13.095Z,0.00
2019-03-25T03:06:13.088Z,0.00
2019-03-25T03:07:13.076Z,0.00
2019-03-25T03:08:13.065Z,0.00
2019-03-25T03:09:13.050Z,0.00
2019-03-25T03:10:13.041Z,0.00
2019-03-25T03:11:13.031Z,0.00
2019-03-25T03:12:13.018Z,0.00
2019-03-25T03:13:13.007Z,0.00
2019-03-25T03:14:15.332Z,0.00
2019-03-25T03:15:13.015Z,0.00
2019-03-25T03:16:12.987Z,0.00
2019-03-25T03:17:12.971Z,0.00
2019-03-25T03:18:12.959Z,0.00
2019-03-25T03:19:12.941Z,0.00
2019-03-25T03:20:12.931Z,0.00
2019-03-25T03:21:12.917Z,0.00
2019-03-25T03:22:12.911Z,0.00
2019-03-25T03:23:12.897Z,0.00
2019-03-25T03:24:12.891Z,0.00
2019-03-25T03:25:12.874Z,0.00
2019-03-25T03:26:12.868Z,0.00
2019-03-25T03:27:12.857Z,0.00
2019-03-25T03:28:12.841Z,0.00
2019-03-25T03:29:12.833Z,0.00
2019-03-25T03:30:12.844Z,0.00
2019-03-25T03:31:12.812Z,0.00
2019-03-25T03:32:12.802Z,0.00
2019-03-25T03:33:12.798Z,0.00
2019-03-25T03:34:12.781Z,0.00
2019-03-25T03:35:12.774Z,0.00
2019-03-25T03:36:12.763Z,0.00
2019-03-25T03:37:12.742Z,0.00
2019-03-25T03:38:12.732Z,0.00
2019-03-25T03:39:12.724Z,0.00
2019-03-25T03:40:12.706Z,0.00
2019-03-25T03:41:12.699Z,0.00
2019-03-25T03:42:12.686Z,0.00
2019-03-25T03:43:12.676Z,0.00
2019-03-25T03:44:12.664Z,0.00
2019-03-25T03:45:12.710Z,0.00
2019-03-25T03:46:12.642Z,0.00
2019-03-25T03:47:12.629Z,0.00
2019-03-25T03:48:12.620Z,0.00
2019-03-25T03:49:12.610Z,0.00
2019-03-25T03:50:14.114Z,0.00
2019-03-25T03:51:12.584Z,0.00
2019-03-25T03:52:12.597Z,0.00
2019-03-25T03:53:12.563Z,0.00
2019-03-25T03:54:12.548Z,0.00
2019-03-25T03:55:12.542Z,0.00
2019-03-25T03:56:14.165Z,0.00
2019-03-25T03:57:12.517Z,0.00
2019-03-25T03:58:12.505Z,0.00
2019-03-25T03:59:12.498Z,0.00
2019-03-25T04:00:12.486Z,0.00
2019-03-25T04:01:12.475Z,0.00
2019-03-25T04:02:12.563Z,0.00
2019-03-25T04:03:12.458Z,0.00
2019-03-25T04:04:12.441Z,0.00
2019-03-25T04:05:12.438Z,0.00
2019-03-25T04:06:12.494Z,0.00
2019-03-25T04:07:12.438Z,0.00
2019-03-25T04:08:12.400Z,0.00
2019-03-25T04:09:12.386Z,0.00
2019-03-25T04:10:12.388Z,0.00
2019-03-25T04:11:12.364Z,0.00
2019-03-25T04:12:12.353Z,0.00
2019-03-25T04:13:12.341Z,0.00
2019-03-25T04:14:12.328Z,0.00
2019-03-25T04:15:12.318Z,0.00
2019-03-25T04:16:12.316Z,0.00
2019-03-25T04:17:12.299Z,0.00
2019-03-25T04:18:12.289Z,0.00
2019-03-25T04:19:12.274Z,0.00
2019-03-25T04:20:12.264Z,0.00
2019-03-25T04:21:12.249Z,0.00
2019-03-25T04:22:12.241Z,0.00
2019-03-25T04:23:12.230Z,0.00
2019-03-25T04:24:12.216Z,0.00
2019-03-25T04:25:12.210Z,0.00
2019-03-25T04:26:27.236Z,0.00
2019-03-25T04:27:13.184Z,0.00
2019-03-25T04:28:12.171Z,0.00
2019-03-25T04:29:12.172Z,0.00
2019-03-25T04:30:12.151Z,0.00
2019-03-25T04:31:12.145Z,0.00
2019-03-25T04:32:12.130Z,0.00
2019-03-25T04:33:12.120Z,0.00
2019-03-25T04:34:12.110Z,0.00
2019-03-25T04:35:12.099Z,0.00
2019-03-25T04:36:12.084Z,0.00
2019-03-25T04:37:12.090Z,0.00
2019-03-25T04:38:12.063Z,0.00
2019-03-25T04:39:12.060Z,0.00
2019-03-25T04:40:12.040Z,0.00
2019-03-25T04:41:12.032Z,0.00
2019-03-25T04:42:12.025Z,0.00
2019-03-25T04:43:12.014Z,0.00
2019-03-25T04:44:11.997Z,0.00
2019-03-25T04:45:11.985Z,0.00
2019-03-25T04:46:11.974Z,0.00
2019-03-25T04:47:11.977Z,0.00
2019-03-25T04:48:11.949Z,0.00
2019-03-25T04:49:11.942Z,0.00
2019-03-25T04:50:11.931Z,0.00
2019-03-25T04:51:11.919Z,0.00
2019-03-25T04:52:11.911Z,0.00
2019-03-25T04:53:11.897Z,0.00
2019-03-25T04:54:11.886Z,0.00
2019-03-25T04:55:11.875Z,0.00
2019-03-25T04:56:11.866Z,0.00
2019-03-25T04:57:11.853Z,0.00
2019-03-25T04:58:11.846Z,0.00
2019-03-25T04:59:11.837Z,5.62
2019-03-25T05:00:11.825Z,5.62
2019-03-25T05:01:11.811Z,5.62
2019-03-25T05:02:11.801Z,5.62
2019-03-25T05:03:11.787Z,5.62
2019-03-25T05:04:11.778Z,5.62
2019-03-25T05:05:11.764Z,11.25
2019-03-25T05:06:11.759Z,11.25
2019-03-25T05:07:11.746Z,11.25
2019-03-25T05:08:11.738Z,16.88
2019-03-25T05:09:11.721Z,16.88
2019-03-25T05:10:11.711Z,16.88
2019-03-25T05:11:11.703Z,22.50
2019-03-25T05:12:11.693Z,22.50
2019-03-25T05:13:11.686Z,28.12
2019-03-25T05:14:11.666Z,28.12
2019-03-25T05:15:11.656Z,28.12
2019-03-25T05:16:11.648Z,33.75
2019-03-25T05:17:11.643Z,39.38
2019-03-25T05:18:11.623Z,39.38
2019-03-25T05:19:11.622Z,45.00
2019-03-25T05:20:11.603Z,45.00
2019-03-25T05:21:11.589Z,50.62
2019-03-25T05:22:11.583Z,56.25
2019-03-25T05:23:11.569Z,61.88
2019-03-25T05:24:11.611Z,61.88
2019-03-25T05:25:11.549Z,67.50
2019-03-25T05:26:11.541Z,73.12
2019-03-25T05:27:11.524Z,73.12
2019-03-25T05:28:11.515Z,78.75
2019-03-25T05:29:12.200Z,84.38
2019-03-25T05:30:11.495Z,90.00
2019-03-25T05:31:11.482Z,95.62
2019-03-25T05:32:11.467Z,101.25
2019-03-25T05:33:11.458Z,101.25
2019-03-25T05:34:11.445Z,106.88
2019-03-25T05:35:11.437Z,112.50
2019-03-25T05:36:11.426Z,118.12
2019-03-25T05:37:11.415Z,123.75
2019-03-25T05:38:11.403Z,129.38
2019-03-25T05:39:11.398Z,135.00
2019-03-25T05:40:11.386Z,140.62
2019-03-25T05:41:11.370Z,146.25
2019-03-25T05:42:11.359Z,146.25
2019-03-25T05:43:11.355Z,151.88
2019-03-25T05:44:11.343Z,163.12
2019-03-25T05:45:11.324Z,174.38
2019-03-25T05:46:11.317Z,185.62
2019-03-25T05:47:11.306Z,191.25
2019-03-25T05:48:11.298Z,196.88
2019-03-25T05:49:11.283Z,202.50
2019-03-25T05:50:11.273Z,208.12
2019-03-25T05:51:11.263Z,213.75
2019-03-25T05:52:11.252Z,219.38
2019-03-25T05:53:11.247Z,225.00
2019-03-25T05:54:11.228Z,225.00
2019-03-25T05:55:11.286Z,236.25
2019-03-25T05:56:11.209Z,241.88
2019-03-25T05:57:11.200Z,253.12
2019-03-25T05:58:11.185Z,258.75
2019-03-25T05:59:11.172Z,264.38
2019-03-25T06:00:11.163Z,270.00
2019-03-25T06:01:11.154Z,281.25
2019-03-25T06:02:11.142Z,286.88
2019-03-25T06:03:11.131Z,298.12
2019-03-25T06:04:11.115Z,303.75
2019-03-25T06:05:11.111Z,309.38
2019-03-25T06:06:11.091Z,315.00
2019-03-25T06:07:11.082Z,320.62
2019-03-25T06:08:11.073Z,326.25
2019-03-25T06:09:11.061Z,331.88
2019-03-25T06:10:11.050Z,337.50
2019-03-25T06:11:11.040Z,348.75
2019-03-25T06:12:11.030Z,354.38
2019-03-25T06:13:11.016Z,354.38
2019-03-25T06:14:11.007Z,360.00
2019-03-25T06:15:10.996Z,365.62
2019-03-25T06:16:11.064Z,376.88
2019-03-25T06:17:10.979Z,382.50
2019-03-25T06:18:10.962Z,388.12
2019-03-25T06:19:10.950Z,388.12
2019-03-25T06:20:10.938Z,399.38
2019-03-25T06:21:10.926Z,405.00
2019-03-25T06:22:10.934Z,410.62
2019-03-25T06:23:10.905Z,421.88
2019-03-25T06:24:10.894Z,433.12
2019-03-25T06:25:10.881Z,438.75
2019-03-25T06:26:10.872Z,444.38
2019-03-25T06:27:14.383Z,444.38
2019-03-25T06:28:10.857Z,450.00
2019-03-25T06:29:10.846Z,455.62
2019-03-25T06:30:10.832Z,466.88
2019-03-25T06:31:10.823Z,483.75
2019-03-25T06:32:10.804Z,506.25
2019-03-25T06:33:12.586Z,568.12
2019-03-25T06:34:10.792Z,630.00
2019-03-25T06:35:10.770Z,658.12
2019-03-25T06:36:10.764Z,759.38
2019-03-25T06:37:10.750Z,995.62
2019-03-25T06:38:10.744Z,1046.25
2019-03-25T06:39:10.733Z,1035.00
2019-03-25T06:40:10.721Z,1147.50
2019-03-25T06:41:10.706Z,973.12
2019-03-25T06:42:10.696Z,888.75
2019-03-25T06:43:10.687Z,928.12
2019-03-25T06:44:10.674Z,990.00
2019-03-25T06:45:10.660Z,1040.62
2019-03-25T06:46:10.653Z,995.62
2019-03-25T06:47:10.643Z,990.00
2019-03-25T06:48:10.638Z,1006.88
2019-03-25T06:49:10.619Z,1063.12
2019-03-25T06:50:10.606Z,1063.12
2019-03-25T06:51:10.604Z,1068.75
2019-03-25T06:52:10.588Z,1068.75
2019-03-25T06:53:10.575Z,1153.12
2019-03-25T06:54:10.588Z,1186.88
2019-03-25T06:55:10.554Z,1226.25
2019-03-25T06:56:10.539Z,1248.75
2019-03-25T06:57:10.526Z,1243.12
2019-03-25T06:58:10.524Z,1108.12
2019-03-25T06:59:10.506Z,1147.50
2019-03-25T07:00:10.495Z,1231.88
2019-03-25T07:01:10.486Z,1237.50
2019-03-25T07:02:10.489Z,1248.75
2019-03-25T07:03:10.477Z,1305.00
2019-03-25T07:04:10.451Z,1400.62
2019-03-25T07:05:10.441Z,1316.25
2019-03-25T07:06:10.432Z,1265.62
2019-03-25T07:07:10.418Z,1316.25
2019-03-25T07:08:10.405Z,1344.38
2019-03-25T07:09:10.399Z,1400.62
2019-03-25T07:10:10.400Z,1417.50
2019-03-25T07:11:10.377Z,1490.62
2019-03-25T07:12:10.363Z,1614.38
2019-03-25T07:13:10.355Z,1490.62
2019-03-25T07:14:10.348Z,1468.12
2019-03-25T07:15:10.327Z,1395.00
2019-03-25T07:16:10.314Z,1366.88
2019-03-25T07:17:10.303Z,1597.50
2019-03-25T07:18:10.296Z,1861.88
2019-03-25T07:19:10.290Z,1850.62
2019-03-25T07:20:10.274Z,1625.62
2019-03-25T07:21:10.261Z,1569.38
2019-03-25T07:22:10.252Z,1648.12
2019-03-25T07:23:10.247Z,1620.00
2019-03-25T07:24:10.231Z,2115.00
2019-03-25T07:25:10.217Z,2283.75
2019-03-25T07:26:10.208Z,2025.00
2019-03-25T07:27:10.195Z,2053.12
2019-03-25T07:28:10.184Z,2137.50
2019-03-25T07:29:10.174Z,1946.25
2019-03-25T07:30:11.450Z,1867.50
2019-03-25T07:31:10.159Z,2025.00
2019-03-25T07:32:10.151Z,2806.88
2019-03-25T07:33:10.130Z,2671.88
2019-03-25T07:34:10.119Z,2385.00
2019-03-25T07:35:10.108Z,2711.25
2019-03-25T07:36:10.100Z,2317.50
2019-03-25T07:37:10.130Z,1591.88
2019-03-25T07:38:10.087Z,1411.88
2019-03-25T07:39:10.074Z,1372.50
2019-03-25T07:40:10.054Z,1321.88
2019-03-25T07:41:10.040Z,1276.88
2019-03-25T07:42:10.040Z,1254.38
2019-03-25T07:43:10.068Z,1248.75
2019-03-25T07:44:10.010Z,1243.12
2019-03-25T07:45:10.025Z,1231.88
2019-03-25T07:46:09.987Z,1215.00
2019-03-25T07:47:09.976Z,1209.38
2019-03-25T07:48:09.970Z,1203.75
2019-03-25T07:49:09.969Z,1203.75
2019-03-25T07:50:09.939Z,1198.12
2019-03-25T07:51:09.945Z,1209.38
2019-03-25T07:52:09.919Z,1215.00
2019-03-25T07:53:09.914Z,1215.00
2019-03-25T07:54:09.933Z,1231.88
2019-03-25T07:55:09.908Z,1231.88
2019-03-25T07:56:09.890Z,1231.88
2019-03-25T07:57:11.823Z,1254.38
2019-03-25T07:58:09.873Z,1265.62
2019-03-25T07:59:09.856Z,1260.00
2019-03-25T08:00:13.921Z,1265.62
2019-03-25T08:01:09.831Z,1254.38
2019-03-25T08:02:09.832Z,1243.12
2019-03-25T08:03:09.870Z,1248.75
2019-03-25T08:04:09.790Z,1248.75
2019-03-25T08:05:10.011Z,1248.75
2019-03-25T08:06:09.902Z,1248.75
2019-03-25T08:07:10.116Z,1260.00
2019-03-25T08:08:09.767Z,1271.25
2019-03-25T08:09:09.738Z,1282.50
2019-03-25T08:10:09.726Z,1305.00
2019-03-25T08:11:09.713Z,1316.25
2019-03-25T08:12:09.731Z,1327.50
2019-03-25T08:13:09.923Z,1350.00
2019-03-25T08:14:09.678Z,1361.25
2019-03-25T08:15:09.693Z,1361.25
2019-03-25T08:16:09.671Z,1361.25
2019-03-25T08:17:09.707Z,1366.88
2019-03-25T08:18:09.643Z,1378.12
2019-03-25T08:19:09.629Z,1395.00
2019-03-25T08:20:09.634Z,1445.62
2019-03-25T08:21:09.608Z,1552.50
2019-03-25T08:22:09.679Z,1636.88
2019-03-25T08:23:10.142Z,1670.62
2019-03-25T08:24:09.608Z,1771.88
2019-03-25T08:25:09.561Z,1912.50
2019-03-25T08:26:09.578Z,2216.25
2019-03-25T08:27:09.989Z,2531.25
2019-03-25T08:28:09.754Z,2649.38
2019-03-25T08:29:09.960Z,2373.75
2019-03-25T08:30:09.512Z,2272.50
2019-03-25T08:31:09.607Z,2520.00
2019-03-25T08:32:09.493Z,2480.62
2019-03-25T08:33:09.594Z,2182.50
2019-03-25T08:34:09.644Z,2025.00
2019-03-25T08:35:09.539Z,2064.38
2019-03-25T08:36:09.469Z,2210.62
2019-03-25T08:37:09.447Z,2435.62
2019-03-25T08:38:09.424Z,2418.75
2019-03-25T08:39:09.421Z,2424.38
2019-03-25T08:40:09.407Z,2666.25
2019-03-25T08:41:09.417Z,2716.88
2019-03-25T08:42:09.388Z,2570.62
2019-03-25T08:43:09.938Z,2480.62
2019-03-25T08:44:09.469Z,2463.75
2019-03-25T08:45:09.443Z,2508.75
2019-03-25T08:46:09.555Z,2857.50
2019-03-25T08:47:09.350Z,2930.62
2019-03-25T08:48:09.318Z,2840.62
2019-03-25T08:49:11.850Z,2880.00
2019-03-25T08:50:09.290Z,2885.62
2019-03-25T08:51:09.328Z,2722.50
2019-03-25T08:52:09.283Z,2626.88
2019-03-25T08:53:09.265Z,2711.25
2019-03-25T08:54:09.263Z,3009.38
2019-03-25T08:55:09.246Z,3093.75
2019-03-25T08:56:09.232Z,3138.75
2019-03-25T08:57:09.307Z,2970.00
2019-03-25T08:58:12.380Z,2475.00
2019-03-25T08:59:09.209Z,2323.12
2019-03-25T09:00:09.191Z,2626.88
2019-03-25T09:01:09.194Z,2716.88
2019-03-25T09:02:09.180Z,2525.62
2019-03-25T09:03:09.162Z,2655.00
2019-03-25T09:04:09.148Z,2835.00
2019-03-25T09:05:09.139Z,2761.88
2019-03-25T09:06:09.127Z,2587.50
2019-03-25T09:07:09.112Z,2486.25
2019-03-25T09:08:09.101Z,2598.75
2019-03-25T09:09:09.097Z,2829.38
2019-03-25T09:10:09.085Z,2908.12
2019-03-25T09:11:09.078Z,2818.12
2019-03-25T09:12:09.063Z,2548.12
2019-03-25T09:13:09.070Z,2334.38
2019-03-25T09:14:09.045Z,2458.12
2019-03-25T09:15:09.039Z,2784.38
2019-03-25T09:16:09.022Z,2806.88
2019-03-25T09:17:09.014Z,2441.25
2019-03-25T09:18:09.004Z,2340.00
2019-03-25T09:19:08.998Z,2694.38
2019-03-25T09:20:08.989Z,2806.88
2019-03-25T09:21:08.988Z,2790.00
2019-03-25T09:22:08.964Z,2986.88
2019-03-25T09:23:08.960Z,2733.75
2019-03-25T09:24:08.945Z,2463.75
2019-03-25T09:25:08.931Z,2716.88
2019-03-25T09:26:08.917Z,2812.50
2019-03-25T09:27:08.923Z,2683.12
2019-03-25T09:28:08.898Z,2801.25
2019-03-25T09:29:08.888Z,2986.88
2019-03-25T09:30:08.875Z,3009.38
2019-03-25T09:31:08.861Z,3155.62
2019-03-25T09:32:08.861Z,2998.12
2019-03-25T09:33:08.853Z,2655.00
2019-03-25T09:34:08.852Z,2722.50
2019-03-25T09:35:08.822Z,2733.75
2019-03-25T09:36:08.814Z,2936.25
2019-03-25T09:37:08.808Z,3172.50
2019-03-25T09:38:08.802Z,2846.25
2019-03-25T09:39:08.804Z,2621.25
2019-03-25T09:40:08.778Z,2908.12
2019-03-25T09:41:08.871Z,3183.75
2019-03-25T09:42:08.762Z,3285.00
2019-03-25T09:43:08.749Z,3189.38
2019-03-25T09:44:08.772Z,3003.75
2019-03-25T09:45:08.751Z,3020.62
2019-03-25T09:46:08.810Z,3290.62
2019-03-25T09:47:08.710Z,3481.88
2019-03-25T09:48:08.750Z,3234.38
2019-03-25T09:49:10.141Z,3060.00
2019-03-25T09:50:08.677Z,3296.25
2019-03-25T09:51:08.661Z,3639.38
2019-03-25T09:52:08.667Z,3560.62
2019-03-25T09:53:08.640Z,3127.50
2019-03-25T09:54:08.667Z,3043.12
2019-03-25T09:55:08.623Z,3110.62
2019-03-25T09:56:08.663Z,3037.50
2019-03-25T09:57:08.614Z,3071.25
2019-03-25T09:58:08.595Z,3138.75
2019-03-25T09:59:08.583Z,3060.00
2019-03-25T10:00:08.588Z,3048.75
2019-03-25T10:01:08.619Z,3105.00
2019-03-25T10:02:08.548Z,2919.38
2019-03-25T10:03:08.554Z,2851.88
2019-03-25T10:04:08.545Z,2829.38
2019-03-25T10:05:08.561Z,2986.88
2019-03-25T10:06:08.538Z,3245.62
2019-03-25T10:07:08.587Z,3318.75
2019-03-25T10:08:08.489Z,3476.25
2019-03-25T10:09:08.481Z,3538.12
2019-03-25T10:10:08.479Z,3240.00
2019-03-25T10:11:08.474Z,3082.50
2019-03-25T10:12:08.456Z,3026.25
2019-03-25T10:13:08.460Z,2722.50
2019-03-25T10:14:08.431Z,2508.75
2019-03-25T10:15:08.425Z,2750.62
2019-03-25T10:16:08.409Z,3093.75
2019-03-25T10:17:08.406Z,3054.38
2019-03-25T10:18:08.397Z,3161.25
2019-03-25T10:19:10.305Z,3515.62
2019-03-25T10:20:08.378Z,3380.62
2019-03-25T10:21:08.364Z,3189.38
2019-03-25T10:22:08.351Z,3290.62
2019-03-25T10:23:08.350Z,3493.12
2019-03-25T10:24:08.363Z,3363.75
2019-03-25T10:25:08.324Z,3268.12
2019-03-25T10:26:08.319Z,3448.12
2019-03-25T10:27:08.305Z,3420.00
2019-03-25T10:28:08.289Z,3161.25
2019-03-25T10:29:08.291Z,2846.25
2019-03-25T10:30:08.276Z,2514.38
2019-03-25T10:31:08.271Z,2328.75
2019-03-25T10:32:08.252Z,2356.88
2019-03-25T10:33:08.243Z,2739.38
2019-03-25T10:34:08.242Z,3234.38
2019-03-25T10:35:08.228Z,3532.50
2019-03-25T10:36:08.219Z,3431.25
2019-03-25T10:37:08.208Z,3330.00
2019-03-25T10:38:19.116Z,3341.25
2019-03-25T10:39:09.182Z,3346.88
2019-03-25T10:40:08.198Z,3729.38
2019-03-25T10:41:08.198Z,3841.88
2019-03-25T10:42:08.159Z,3346.88
2019-03-25T10:43:08.159Z,3048.75
2019-03-25T10:44:08.141Z,3234.38
2019-03-25T10:45:08.148Z,3673.12
2019-03-25T10:46:08.122Z,3768.75
2019-03-25T10:47:08.122Z,3678.75
2019-03-25T10:48:08.378Z,3481.88
2019-03-25T10:49:08.108Z,2975.62
2019-03-25T10:50:08.080Z,2700.00
2019-03-25T10:51:08.069Z,2846.25
2019-03-25T10:52:08.143Z,3279.38
2019-03-25T10:53:08.046Z,3566.25
2019-03-25T10:54:08.034Z,3526.88
2019-03-25T10:55:08.138Z,3228.75
2019-03-25T10:56:08.014Z,2953.12
2019-03-25T10:57:08.015Z,3065.62
2019-03-25T10:58:08.184Z,3240.00
2019-03-25T10:59:07.999Z,3071.25
2019-03-25T11:00:07.985Z,2986.88
2019-03-25T11:01:09.591Z,3234.38
2019-03-25T11:02:07.964Z,3431.25
2019-03-25T11:03:07.950Z,3313.12
2019-03-25T11:04:07.949Z,3335.62
2019-03-25T11:05:07.927Z,3245.62
2019-03-25T11:06:07.919Z,3138.75
2019-03-25T11:07:07.923Z,3200.62
2019-03-25T11:08:07.902Z,3330.00
2019-03-25T11:09:07.902Z,3448.12
2019-03-25T11:10:07.889Z,3369.38
2019-03-25T11:11:07.877Z,3268.12
2019-03-25T11:12:07.866Z,3352.50
2019-03-25T11:13:07.853Z,3470.62
2019-03-25T11:14:07.835Z,3251.25
2019-03-25T11:15:07.831Z,2913.75
2019-03-25T11:16:07.835Z,2728.12
2019-03-25T11:17:07.825Z,2778.75
2019-03-25T11:18:07.845Z,2958.75
2019-03-25T11:19:07.806Z,2823.75
2019-03-25T11:20:07.794Z,2818.12
2019-03-25T11:21:07.809Z,3183.75
2019-03-25T11:22:07.765Z,3301.88
2019-03-25T11:23:07.752Z,3211.88
2019-03-25T11:24:07.743Z,3150.00
2019-03-25T11:25:07.741Z,3195.00
2019-03-25T11:26:07.753Z,3318.75
2019-03-25T11:27:07.711Z,3335.62
2019-03-25T11:28:07.699Z,3234.38
2019-03-25T11:29:08.587Z,3138.75
2019-03-25T11:30:07.679Z,2733.75
2019-03-25T11:31:07.688Z,2632.50
2019-03-25T11:32:07.667Z,3110.62
2019-03-25T11:33:07.654Z,3318.75
2019-03-25T11:34:07.648Z,3296.25
2019-03-25T11:35:07.635Z,3549.38
2019-03-25T11:36:07.635Z,3819.38
2019-03-25T11:37:07.610Z,3723.75
2019-03-25T11:38:07.607Z,3256.88
2019-03-25T11:39:07.596Z,2902.50
2019-03-25T11:40:07.651Z,2970.00
2019-03-25T11:41:07.577Z,3127.50
2019-03-25T11:42:07.567Z,3127.50
2019-03-25T11:43:07.609Z,3037.50
2019-03-25T11:44:07.564Z,3200.62
2019-03-25T11:45:07.547Z,3099.38
2019-03-25T11:46:07.543Z,2480.62
2019-03-25T11:47:07.521Z,2244.38
2019-03-25T11:48:07.514Z,2278.12
2019-03-25T11:49:07.500Z,2283.75
2019-03-25T11:50:07.493Z,2542.50
2019-03-25T11:51:07.483Z,2902.50
2019-03-25T11:52:07.506Z,3071.25
2019-03-25T11:53:07.465Z,3318.75
2019-03-25T11:54:07.456Z,3301.88
2019-03-25T11:55:07.471Z,2964.38
2019-03-25T11:56:07.434Z,2610.00
2019-03-25T11:57:07.429Z,2385.00
2019-03-25T11:58:07.441Z,2531.25
2019-03-25T11:59:07.408Z,2806.88
2019-03-25T12:00:07.415Z,2970.00
2019-03-25T12:01:07.392Z,2953.12
2019-03-25T12:02:17.111Z,2795.62
2019-03-25T12:03:08.372Z,2908.12
2019-03-25T12:04:07.368Z,3144.38
2019-03-25T12:05:07.357Z,3200.62
2019-03-25T12:06:07.343Z,3206.25
2019-03-25T12:07:07.338Z,3110.62
2019-03-25T12:08:07.330Z,2986.88
2019-03-25T12:09:07.316Z,3240.00
2019-03-25T12:10:07.314Z,3290.62
2019-03-25T12:11:07.297Z,2913.75
2019-03-25T12:12:07.287Z,2632.50
2019-03-25T12:13:07.288Z,2705.62
2019-03-25T12:14:07.271Z,3037.50
2019-03-25T12:15:07.270Z,2981.25
2019-03-25T12:16:07.254Z,2981.25
2019-03-25T12:17:07.239Z,3043.12
2019-03-25T12:18:07.235Z,2930.62
2019-03-25T12:19:07.300Z,2981.25
2019-03-25T12:20:07.211Z,3020.62
2019-03-25T12:21:07.205Z,2812.50
2019-03-25T12:22:07.191Z,2570.62
2019-03-25T12:23:07.189Z,2340.00
2019-03-25T12:24:07.177Z,2317.50
2019-03-25T12:25:07.162Z,2660.62
2019-03-25T12:26:07.155Z,3076.88
2019-03-25T12:27:07.169Z,3048.75
2019-03-25T12:28:07.136Z,2705.62
2019-03-25T12:29:07.121Z,2857.50
2019-03-25T12:30:07.129Z,2981.25
2019-03-25T12:31:07.108Z,2846.25
2019-03-25T12:32:07.096Z,2677.50
2019-03-25T12:33:07.080Z,2559.38
2019-03-25T12:34:07.104Z,2570.62
2019-03-25T12:35:07.064Z,2660.62
2019-03-25T12:36:07.052Z,2812.50
2019-03-25T12:37:07.043Z,2902.50